sensor_id;sensor_type;location;lat;lon;timestamp;pressure;altitude;pressure_sealevel;temperature;humidity
81905;BME280;71370;-33.792;151.032;2024-02-15T00:00:55;101645.40;;;20.45;79.64
81905;BME280;71370;-33.792;151.032;2024-02-15T00:02:04;101647.65;;;20.47;79.24
81905;BME280;71370;-33.792;151.032;2024-02-15T00:03:11;101648.11;;;20.49;79.40
81905;BME280;71370;-33.792;151.032;2024-02-15T00:04:19;101644.98;;;20.51;79.38
81905;BME280;71370;-33.792;151.032;2024-02-15T00:05:26;101647.64;;;20.52;79.39
81905;BME280;71370;-33.792;151.032;2024-02-15T00:06:33;101647.77;;;20.52;79.29
81905;BME280;71370;-33.792;151.032;2024-02-15T00:07:41;101649.89;;;20.53;79.50
81905;BME280;71370;-33.792;151.032;2024-02-15T00:08:48;101650.00;;;20.55;79.57
81905;BME280;71370;-33.792;151.032;2024-02-15T00:09:56;101650.81;;;20.57;79.51
81905;BME280;71370;-33.792;151.032;2024-02-15T00:11:05;101653.95;;;20.59;79.57
81905;BME280;71370;-33.792;151.032;2024-02-15T00:12:12;101651.75;;;20.61;79.19
81905;BME280;71370;-33.792;151.032;2024-02-15T00:13:19;101652.55;;;20.63;79.08
81905;BME280;71370;-33.792;151.032;2024-02-15T00:14:26;101653.03;;;20.65;78.96
81905;BME280;71370;-33.792;151.032;2024-02-15T00:15:37;101651.63;;;20.64;78.82
81905;BME280;71370;-33.792;151.032;2024-02-15T00:16:45;101654.15;;;20.64;78.75
81905;BME280;71370;-33.792;151.032;2024-02-15T00:17:52;101657.44;;;20.61;78.75
81905;BME280;71370;-33.792;151.032;2024-02-15T00:18:59;101656.17;;;20.62;78.68
81905;BME280;71370;-33.792;151.032;2024-02-15T00:20:06;101659.91;;;20.63;78.79
81905;BME280;71370;-33.792;151.032;2024-02-15T00:21:15;101660.13;;;20.62;78.65
81905;BME280;71370;-33.792;151.032;2024-02-15T00:22:22;101659.29;;;20.59;78.56
81905;BME280;71370;-33.792;151.032;2024-02-15T00:23:29;101658.66;;;20.57;78.63
81905;BME280;71370;-33.792;151.032;2024-02-15T00:24:37;101655.55;;;20.55;78.63
81905;BME280;71370;-33.792;151.032;2024-02-15T00:25:44;101655.05;;;20.54;78.71
81905;BME280;71370;-33.792;151.032;2024-02-15T00:26:51;101651.48;;;20.54;78.82
81905;BME280;71370;-33.792;151.032;2024-02-15T00:27:59;101655.23;;;20.54;78.95
81905;BME280;71370;-33.792;151.032;2024-02-15T00:29:08;101658.64;;;20.53;79.13
81905;BME280;71370;-33.792;151.032;2024-02-15T00:30:15;101657.52;;;20.54;79.25
81905;BME280;71370;-33.792;151.032;2024-02-15T00:31:22;101656.78;;;20.55;79.28
81905;BME280;71370;-33.792;151.032;2024-02-15T00:32:29;101657.72;;;20.54;79.02
81905;BME280;71370;-33.792;151.032;2024-02-15T00:33:36;101660.03;;;20.54;79.20
81905;BME280;71370;-33.792;151.032;2024-02-15T00:34:43;101654.30;;;20.54;79.14
81905;BME280;71370;-33.792;151.032;2024-02-15T00:35:50;101656.27;;;20.54;79.30
81905;BME280;71370;-33.792;151.032;2024-02-15T00:36:58;101654.23;;;20.56;79.33
81905;BME280;71370;-33.792;151.032;2024-02-15T00:38:05;101654.69;;;20.58;79.38
81905;BME280;71370;-33.792;151.032;2024-02-15T00:39:13;101656.38;;;20.61;79.48
81905;BME280;71370;-33.792;151.032;2024-02-15T00:40:24;101658.41;;;20.65;79.45
81905;BME280;71370;-33.792;151.032;2024-02-15T00:41:32;101660.30;;;20.66;79.32
81905;BME280;71370;-33.792;151.032;2024-02-15T00:42:39;101656.97;;;20.65;79.36
81905;BME280;71370;-33.792;151.032;2024-02-15T00:43:47;101657.98;;;20.66;79.28
81905;BME280;71370;-33.792;151.032;2024-02-15T00:44:54;101656.77;;;20.65;79.23
81905;BME280;71370;-33.792;151.032;2024-02-15T00:46:01;101653.44;;;20.64;79.26
81905;BME280;71370;-33.792;151.032;2024-02-15T00:47:09;101655.61;;;20.63;79.38
81905;BME280;71370;-33.792;151.032;2024-02-15T00:48:18;101652.34;;;20.64;79.45
81905;BME280;71370;-33.792;151.032;2024-02-15T00:49:25;101653.91;;;20.66;79.57
81905;BME280;71370;-33.792;151.032;2024-02-15T00:50:33;101655.99;;;20.67;79.68
81905;BME280;71370;-33.792;151.032;2024-02-15T00:51:40;101655.38;;;20.69;79.87
81905;BME280;71370;-33.792;151.032;2024-02-15T00:52:47;101653.34;;;20.70;79.84
81905;BME280;71370;-33.792;151.032;2024-02-15T00:53:54;101656.18;;;20.71;79.58
81905;BME280;71370;-33.792;151.032;2024-02-15T00:55:02;101653.88;;;20.70;79.67
81905;BME280;71370;-33.792;151.032;2024-02-15T00:56:09;101654.93;;;20.71;79.26
81905;BME280;71370;-33.792;151.032;2024-02-15T00:57:15;101655.29;;;20.71;79.33
81905;BME280;71370;-33.792;151.032;2024-02-15T00:58:22;101653.00;;;20.70;79.16
81905;BME280;71370;-33.792;151.032;2024-02-15T00:59:30;101648.04;;;20.69;79.13
81905;BME280;71370;-33.792;151.032;2024-02-15T01:00:37;101648.16;;;20.66;78.93
81905;BME280;71370;-33.792;151.032;2024-02-15T01:01:44;101650.43;;;20.63;79.08
81905;BME280;71370;-33.792;151.032;2024-02-15T01:02:52;101644.80;;;20.60;78.94
81905;BME280;71370;-33.792;151.032;2024-02-15T01:03:59;101647.52;;;20.59;78.87
81905;BME280;71370;-33.792;151.032;2024-02-15T01:05:06;101644.70;;;20.58;78.69
81905;BME280;71370;-33.792;151.032;2024-02-15T01:06:13;101648.33;;;20.56;78.86
81905;BME280;71370;-33.792;151.032;2024-02-15T01:07:20;101646.23;;;20.56;78.74
81905;BME280;71370;-33.792;151.032;2024-02-15T01:08:27;101648.63;;;20.53;78.64
81905;BME280;71370;-33.792;151.032;2024-02-15T01:09:34;101647.93;;;20.53;78.72
81905;BME280;71370;-33.792;151.032;2024-02-15T01:10:41;101646.02;;;20.52;78.82
81905;BME280;71370;-33.792;151.032;2024-02-15T01:11:48;101648.34;;;20.52;79.26
81905;BME280;71370;-33.792;151.032;2024-02-15T01:12:55;101645.94;;;20.53;79.52
81905;BME280;71370;-33.792;151.032;2024-02-15T01:14:02;101644.08;;;20.55;79.48
81905;BME280;71370;-33.792;151.032;2024-02-15T01:15:09;101646.66;;;20.58;79.53
81905;BME280;71370;-33.792;151.032;2024-02-15T01:16:16;101646.58;;;20.60;79.71
81905;BME280;71370;-33.792;151.032;2024-02-15T01:17:23;101645.93;;;20.64;79.59
81905;BME280;71370;-33.792;151.032;2024-02-15T01:18:29;101647.13;;;20.65;79.26
81905;BME280;71370;-33.792;151.032;2024-02-15T01:19:37;101647.41;;;20.67;79.23
81905;BME280;71370;-33.792;151.032;2024-02-15T01:20:44;101648.26;;;20.68;78.89
81905;BME280;71370;-33.792;151.032;2024-02-15T01:21:51;101651.98;;;20.69;78.89
81905;BME280;71370;-33.792;151.032;2024-02-15T01:22:59;101651.21;;;20.70;79.04
81905;BME280;71370;-33.792;151.032;2024-02-15T01:24:06;101651.11;;;20.72;79.06
81905;BME280;71370;-33.792;151.032;2024-02-15T01:25:13;101648.52;;;20.74;79.16
81905;BME280;71370;-33.792;151.032;2024-02-15T01:26:21;101649.41;;;20.78;79.38
81905;BME280;71370;-33.792;151.032;2024-02-15T01:27:29;101646.96;;;20.82;79.24
81905;BME280;71370;-33.792;151.032;2024-02-15T01:28:36;101650.80;;;20.84;78.94
81905;BME280;71370;-33.792;151.032;2024-02-15T01:29:43;101653.94;;;20.86;78.84
81905;BME280;71370;-33.792;151.032;2024-02-15T01:30:50;101651.96;;;20.86;78.82
81905;BME280;71370;-33.792;151.032;2024-02-15T01:31:57;101650.86;;;20.87;79.11
81905;BME280;71370;-33.792;151.032;2024-02-15T01:33:04;101654.28;;;20.86;78.99
81905;BME280;71370;-33.792;151.032;2024-02-15T01:34:11;101654.33;;;20.85;78.88
81905;BME280;71370;-33.792;151.032;2024-02-15T01:35:18;101655.63;;;20.84;78.90
81905;BME280;71370;-33.792;151.032;2024-02-15T01:36:25;101651.02;;;20.83;79.13
81905;BME280;71370;-33.792;151.032;2024-02-15T01:37:32;101650.90;;;20.82;78.83
81905;BME280;71370;-33.792;151.032;2024-02-15T01:38:39;101647.65;;;20.78;78.80
81905;BME280;71370;-33.792;151.032;2024-02-15T01:39:46;101649.34;;;20.76;79.05
81905;BME280;71370;-33.792;151.032;2024-02-15T01:40:53;101653.16;;;20.75;79.01
81905;BME280;71370;-33.792;151.032;2024-02-15T01:42:00;101651.77;;;20.74;79.21
81905;BME280;71370;-33.792;151.032;2024-02-15T01:43:09;101650.52;;;20.73;79.26
81905;BME280;71370;-33.792;151.032;2024-02-15T01:44:16;101651.63;;;20.73;79.17
81905;BME280;71370;-33.792;151.032;2024-02-15T01:45:24;101644.84;;;20.73;79.43
81905;BME280;71370;-33.792;151.032;2024-02-15T01:46:32;101649.45;;;20.74;79.47
81905;BME280;71370;-33.792;151.032;2024-02-15T01:47:39;101647.84;;;20.74;79.47
81905;BME280;71370;-33.792;151.032;2024-02-15T01:48:50;101652.32;;;20.73;79.23
81905;BME280;71370;-33.792;151.032;2024-02-15T01:49:57;101653.08;;;20.72;79.42
81905;BME280;71370;-33.792;151.032;2024-02-15T01:51:05;101647.21;;;20.71;79.40
81905;BME280;71370;-33.792;151.032;2024-02-15T01:52:12;101646.39;;;20.70;79.42
81905;BME280;71370;-33.792;151.032;2024-02-15T01:53:20;101645.91;;;20.69;79.49
81905;BME280;71370;-33.792;151.032;2024-02-15T01:54:27;101643.77;;;20.69;79.54
81905;BME280;71370;-33.792;151.032;2024-02-15T01:55:35;101646.23;;;20.69;79.56
81905;BME280;71370;-33.792;151.032;2024-02-15T01:56:42;101640.45;;;20.71;79.66
81905;BME280;71370;-33.792;151.032;2024-02-15T01:57:49;101643.58;;;20.73;79.83
81905;BME280;71370;-33.792;151.032;2024-02-15T01:58:57;101641.70;;;20.75;79.72
81905;BME280;71370;-33.792;151.032;2024-02-15T02:00:06;101639.99;;;20.77;79.74
81905;BME280;71370;-33.792;151.032;2024-02-15T02:01:15;101636.47;;;20.81;80.00
81905;BME280;71370;-33.792;151.032;2024-02-15T02:02:23;101640.27;;;20.84;79.97
81905;BME280;71370;-33.792;151.032;2024-02-15T02:03:31;101637.86;;;20.86;79.83
81905;BME280;71370;-33.792;151.032;2024-02-15T02:04:39;101637.04;;;20.88;79.56
81905;BME280;71370;-33.792;151.032;2024-02-15T02:05:47;101630.30;;;20.91;79.71
81905;BME280;71370;-33.792;151.032;2024-02-15T02:06:54;101631.85;;;20.93;79.70
81905;BME280;71370;-33.792;151.032;2024-02-15T02:08:05;101631.09;;;20.93;79.35
81905;BME280;71370;-33.792;151.032;2024-02-15T02:09:15;101630.71;;;20.94;79.29
81905;BME280;71370;-33.792;151.032;2024-02-15T02:10:23;101628.05;;;20.94;79.59
81905;BME280;71370;-33.792;151.032;2024-02-15T02:11:30;101630.59;;;20.97;79.99
81905;BME280;71370;-33.792;151.032;2024-02-15T02:12:37;101626.61;;;20.98;79.47
81905;BME280;71370;-33.792;151.032;2024-02-15T02:13:45;101623.34;;;20.99;79.13
81905;BME280;71370;-33.792;151.032;2024-02-15T02:14:52;101622.70;;;21.02;79.45
81905;BME280;71370;-33.792;151.032;2024-02-15T02:15:59;101624.91;;;21.04;79.55
81905;BME280;71370;-33.792;151.032;2024-02-15T02:17:16;101622.70;;;21.06;79.32
81905;BME280;71370;-33.792;151.032;2024-02-15T02:18:26;101626.08;;;21.06;79.04
81905;BME280;71370;-33.792;151.032;2024-02-15T02:19:32;101623.02;;;21.07;79.33
81905;BME280;71370;-33.792;151.032;2024-02-15T02:20:39;101623.67;;;21.08;79.41
81905;BME280;71370;-33.792;151.032;2024-02-15T02:21:46;101622.23;;;21.09;79.34
81905;BME280;71370;-33.792;151.032;2024-02-15T02:23:13;101624.73;;;21.08;78.99
81905;BME280;71370;-33.792;151.032;2024-02-15T02:24:22;101625.91;;;21.06;78.97
81905;BME280;71370;-33.792;151.032;2024-02-15T02:25:29;101628.18;;;21.03;78.79
81905;BME280;71370;-33.792;151.032;2024-02-15T02:26:36;101625.96;;;21.00;78.82
81905;BME280;71370;-33.792;151.032;2024-02-15T02:27:43;101624.59;;;20.99;78.84
81905;BME280;71370;-33.792;151.032;2024-02-15T02:28:51;101624.27;;;20.98;79.01
81905;BME280;71370;-33.792;151.032;2024-02-15T02:30:00;101622.10;;;20.99;79.09
81905;BME280;71370;-33.792;151.032;2024-02-15T02:31:12;101622.92;;;21.01;79.32
81905;BME280;71370;-33.792;151.032;2024-02-15T02:32:20;101624.06;;;21.04;79.39
81905;BME280;71370;-33.792;151.032;2024-02-15T02:33:27;101622.77;;;21.05;79.14
81905;BME280;71370;-33.792;151.032;2024-02-15T02:34:35;101618.96;;;21.05;78.93
81905;BME280;71370;-33.792;151.032;2024-02-15T02:35:42;101623.52;;;21.07;79.05
81905;BME280;71370;-33.792;151.032;2024-02-15T02:36:50;101625.27;;;21.09;79.06
81905;BME280;71370;-33.792;151.032;2024-02-15T02:37:57;101623.12;;;21.08;78.68
81905;BME280;71370;-33.792;151.032;2024-02-15T02:39:04;101622.39;;;21.09;78.77
81905;BME280;71370;-33.792;151.032;2024-02-15T02:40:11;101620.38;;;21.10;78.81
81905;BME280;71370;-33.792;151.032;2024-02-15T02:41:21;101620.16;;;21.11;78.77
81905;BME280;71370;-33.792;151.032;2024-02-15T02:42:29;101619.90;;;21.13;78.84
81905;BME280;71370;-33.792;151.032;2024-02-15T02:43:36;101621.59;;;21.15;79.07
81905;BME280;71370;-33.792;151.032;2024-02-15T02:44:43;101621.71;;;21.16;78.91
81905;BME280;71370;-33.792;151.032;2024-02-15T02:45:51;101618.96;;;21.17;78.73
81905;BME280;71370;-33.792;151.032;2024-02-15T02:46:57;101616.64;;;21.17;78.56
81905;BME280;71370;-33.792;151.032;2024-02-15T02:48:05;101614.84;;;21.18;78.33
81905;BME280;71370;-33.792;151.032;2024-02-15T02:49:13;101612.52;;;21.18;78.33
81905;BME280;71370;-33.792;151.032;2024-02-15T02:50:20;101612.70;;;21.18;78.54
81905;BME280;71370;-33.792;151.032;2024-02-15T02:51:28;101609.29;;;21.18;78.75
81905;BME280;71370;-33.792;151.032;2024-02-15T02:52:35;101609.95;;;21.19;78.92
81905;BME280;71370;-33.792;151.032;2024-02-15T02:53:45;101614.39;;;21.20;78.78
81905;BME280;71370;-33.792;151.032;2024-02-15T02:54:52;101609.20;;;21.20;78.71
81905;BME280;71370;-33.792;151.032;2024-02-15T02:55:59;101606.84;;;21.21;78.77
81905;BME280;71370;-33.792;151.032;2024-02-15T02:57:06;101612.35;;;21.22;78.91
81905;BME280;71370;-33.792;151.032;2024-02-15T02:58:13;101612.90;;;21.22;78.79
81905;BME280;71370;-33.792;151.032;2024-02-15T02:59:20;101612.15;;;21.23;78.74
81905;BME280;71370;-33.792;151.032;2024-02-15T03:00:27;101611.63;;;21.22;79.18
81905;BME280;71370;-33.792;151.032;2024-02-15T03:01:34;101613.95;;;21.22;79.11
81905;BME280;71370;-33.792;151.032;2024-02-15T03:02:42;101611.30;;;21.21;78.90
81905;BME280;71370;-33.792;151.032;2024-02-15T03:03:56;101610.29;;;21.19;78.62
81905;BME280;71370;-33.792;151.032;2024-02-15T03:05:04;101610.36;;;21.18;78.56
81905;BME280;71370;-33.792;151.032;2024-02-15T03:06:12;101611.30;;;21.17;78.80
81905;BME280;71370;-33.792;151.032;2024-02-15T03:07:20;101609.32;;;21.17;79.02
81905;BME280;71370;-33.792;151.032;2024-02-15T03:08:29;101607.29;;;21.19;79.09
81905;BME280;71370;-33.792;151.032;2024-02-15T03:09:36;101607.92;;;21.21;79.29
81905;BME280;71370;-33.792;151.032;2024-02-15T03:10:43;101608.02;;;21.22;79.10
81905;BME280;71370;-33.792;151.032;2024-02-15T03:11:50;101603.29;;;21.24;79.07
81905;BME280;71370;-33.792;151.032;2024-02-15T03:12:57;101600.71;;;21.26;78.93
81905;BME280;71370;-33.792;151.032;2024-02-15T03:14:04;101599.75;;;21.28;78.92
81905;BME280;71370;-33.792;151.032;2024-02-15T03:15:11;101600.18;;;21.30;78.86
81905;BME280;71370;-33.792;151.032;2024-02-15T03:16:22;101598.52;;;21.31;78.78
81905;BME280;71370;-33.792;151.032;2024-02-15T03:17:31;101599.17;;;21.32;78.72
81905;BME280;71370;-33.792;151.032;2024-02-15T03:18:38;101599.64;;;21.34;78.76
81905;BME280;71370;-33.792;151.032;2024-02-15T03:19:44;101600.65;;;21.35;78.77
81905;BME280;71370;-33.792;151.032;2024-02-15T03:20:55;101598.26;;;21.37;78.72
81905;BME280;71370;-33.792;151.032;2024-02-15T03:22:03;101596.96;;;21.38;78.31
81905;BME280;71370;-33.792;151.032;2024-02-15T03:23:09;101599.23;;;21.39;78.12
81905;BME280;71370;-33.792;151.032;2024-02-15T03:24:17;101595.46;;;21.39;78.22
81905;BME280;71370;-33.792;151.032;2024-02-15T03:25:25;101597.20;;;21.40;78.11
81905;BME280;71370;-33.792;151.032;2024-02-15T03:26:32;101596.09;;;21.41;78.08
81905;BME280;71370;-33.792;151.032;2024-02-15T03:27:46;101593.19;;;21.42;78.02
81905;BME280;71370;-33.792;151.032;2024-02-15T03:28:53;101596.73;;;21.43;77.94
81905;BME280;71370;-33.792;151.032;2024-02-15T03:30:01;101595.81;;;21.44;78.10
81905;BME280;71370;-33.792;151.032;2024-02-15T03:31:08;101595.58;;;21.46;78.10
81905;BME280;71370;-33.792;151.032;2024-02-15T03:32:15;101594.83;;;21.46;77.97
81905;BME280;71370;-33.792;151.032;2024-02-15T03:33:22;101597.23;;;21.49;77.94
81905;BME280;71370;-33.792;151.032;2024-02-15T03:34:32;101597.35;;;21.50;77.72
81905;BME280;71370;-33.792;151.032;2024-02-15T03:35:39;101594.85;;;21.50;77.29
81905;BME280;71370;-33.792;151.032;2024-02-15T03:36:46;101595.98;;;21.48;77.14
81905;BME280;71370;-33.792;151.032;2024-02-15T03:38:00;101595.81;;;21.48;77.48
81905;BME280;71370;-33.792;151.032;2024-02-15T03:39:07;101594.39;;;21.48;77.39
81905;BME280;71370;-33.792;151.032;2024-02-15T03:40:14;101597.25;;;21.48;77.16
81905;BME280;71370;-33.792;151.032;2024-02-15T03:41:21;101595.98;;;21.49;77.22
81905;BME280;71370;-33.792;151.032;2024-02-15T03:42:28;101597.91;;;21.49;77.21
81905;BME280;71370;-33.792;151.032;2024-02-15T03:43:36;101599.21;;;21.48;77.15
81905;BME280;71370;-33.792;151.032;2024-02-15T03:44:43;101599.46;;;21.47;77.46
81905;BME280;71370;-33.792;151.032;2024-02-15T03:45:50;101598.41;;;21.46;77.42
81905;BME280;71370;-33.792;151.032;2024-02-15T03:46:57;101598.23;;;21.46;77.42
81905;BME280;71370;-33.792;151.032;2024-02-15T03:48:05;101596.10;;;21.46;77.06
81905;BME280;71370;-33.792;151.032;2024-02-15T03:49:13;101596.13;;;21.45;77.32
81905;BME280;71370;-33.792;151.032;2024-02-15T03:50:21;101598.25;;;21.46;77.49
81905;BME280;71370;-33.792;151.032;2024-02-15T03:51:29;101596.63;;;21.46;77.09
81905;BME280;71370;-33.792;151.032;2024-02-15T03:52:38;101597.18;;;21.46;76.92
81905;BME280;71370;-33.792;151.032;2024-02-15T03:53:45;101598.45;;;21.46;77.16
81905;BME280;71370;-33.792;151.032;2024-02-15T03:54:54;101600.20;;;21.46;77.35
81905;BME280;71370;-33.792;151.032;2024-02-15T03:56:01;101596.12;;;21.46;77.06
81905;BME280;71370;-33.792;151.032;2024-02-15T03:57:08;101594.94;;;21.44;76.64
81905;BME280;71370;-33.792;151.032;2024-02-15T03:58:14;101597.15;;;21.42;76.76
81905;BME280;71370;-33.792;151.032;2024-02-15T03:59:22;101595.08;;;21.40;77.15
81905;BME280;71370;-33.792;151.032;2024-02-15T04:00:32;101590.48;;;21.38;77.24
81905;BME280;71370;-33.792;151.032;2024-02-15T04:01:39;101593.25;;;21.37;77.14
81905;BME280;71370;-33.792;151.032;2024-02-15T04:02:47;101590.45;;;21.35;77.19
81905;BME280;71370;-33.792;151.032;2024-02-15T04:03:56;101589.05;;;21.35;77.15
81905;BME280;71370;-33.792;151.032;2024-02-15T04:05:03;101589.27;;;21.34;77.56
81905;BME280;71370;-33.792;151.032;2024-02-15T04:06:11;101584.91;;;21.35;77.67
81905;BME280;71370;-33.792;151.032;2024-02-15T04:07:18;101581.86;;;21.35;77.42
81905;BME280;71370;-33.792;151.032;2024-02-15T04:08:25;101581.90;;;21.35;77.30
81905;BME280;71370;-33.792;151.032;2024-02-15T04:09:32;101579.79;;;21.34;77.07
81905;BME280;71370;-33.792;151.032;2024-02-15T04:10:42;101580.73;;;21.32;77.12
81905;BME280;71370;-33.792;151.032;2024-02-15T04:11:49;101579.73;;;21.31;77.19
81905;BME280;71370;-33.792;151.032;2024-02-15T04:12:59;101577.77;;;21.31;77.34
81905;BME280;71370;-33.792;151.032;2024-02-15T04:14:05;101574.02;;;21.31;77.42
81905;BME280;71370;-33.792;151.032;2024-02-15T04:15:12;101569.56;;;21.31;77.42
81905;BME280;71370;-33.792;151.032;2024-02-15T04:16:22;101567.22;;;21.31;77.62
81905;BME280;71370;-33.792;151.032;2024-02-15T04:17:31;101566.50;;;21.31;77.53
81905;BME280;71370;-33.792;151.032;2024-02-15T04:18:41;101564.07;;;21.33;77.72
81905;BME280;71370;-33.792;151.032;2024-02-15T04:19:48;101561.51;;;21.35;77.67
81905;BME280;71370;-33.792;151.032;2024-02-15T04:21:00;101565.75;;;21.36;77.25
81905;BME280;71370;-33.792;151.032;2024-02-15T04:22:07;101563.05;;;21.36;77.47
81905;BME280;71370;-33.792;151.032;2024-02-15T04:23:14;101558.56;;;21.36;77.44
81905;BME280;71370;-33.792;151.032;2024-02-15T04:24:21;101559.05;;;21.37;77.57
81905;BME280;71370;-33.792;151.032;2024-02-15T04:25:28;101558.81;;;21.39;77.47
81905;BME280;71370;-33.792;151.032;2024-02-15T04:26:34;101560.55;;;21.40;77.39
81905;BME280;71370;-33.792;151.032;2024-02-15T04:27:45;101561.13;;;21.39;76.71
81905;BME280;71370;-33.792;151.032;2024-02-15T04:28:56;101558.96;;;21.39;76.80
81905;BME280;71370;-33.792;151.032;2024-02-15T04:30:05;101558.04;;;21.40;76.97
81905;BME280;71370;-33.792;151.032;2024-02-15T04:31:15;101562.52;;;21.40;77.23
81905;BME280;71370;-33.792;151.032;2024-02-15T04:32:22;101557.96;;;21.42;77.16
81905;BME280;71370;-33.792;151.032;2024-02-15T04:33:29;101555.98;;;21.42;76.91
81905;BME280;71370;-33.792;151.032;2024-02-15T04:34:36;101552.73;;;21.43;76.71
81905;BME280;71370;-33.792;151.032;2024-02-15T04:35:43;101556.29;;;21.43;76.79
81905;BME280;71370;-33.792;151.032;2024-02-15T04:36:51;101556.64;;;21.44;76.91
81905;BME280;71370;-33.792;151.032;2024-02-15T04:38:04;101553.92;;;21.44;76.94
81905;BME280;71370;-33.792;151.032;2024-02-15T04:39:14;101551.89;;;21.46;77.26
81905;BME280;71370;-33.792;151.032;2024-02-15T04:40:29;101551.86;;;21.47;77.37
81905;BME280;71370;-33.792;151.032;2024-02-15T04:41:36;101548.63;;;21.47;77.22
81905;BME280;71370;-33.792;151.032;2024-02-15T04:42:45;101547.52;;;21.48;77.04
81905;BME280;71370;-33.792;151.032;2024-02-15T04:43:53;101543.58;;;21.48;77.19
81905;BME280;71370;-33.792;151.032;2024-02-15T04:45:01;101544.05;;;21.49;77.25
81905;BME280;71370;-33.792;151.032;2024-02-15T04:46:08;101544.00;;;21.50;77.24
81905;BME280;71370;-33.792;151.032;2024-02-15T04:47:15;101538.93;;;21.52;77.47
81905;BME280;71370;-33.792;151.032;2024-02-15T04:48:22;101539.72;;;21.54;77.63
81905;BME280;71370;-33.792;151.032;2024-02-15T04:49:31;101540.71;;;21.56;77.67
81905;BME280;71370;-33.792;151.032;2024-02-15T04:50:38;101538.35;;;21.56;76.88
81905;BME280;71370;-33.792;151.032;2024-02-15T04:51:48;101538.95;;;21.55;76.11
81905;BME280;71370;-33.792;151.032;2024-02-15T04:52:56;101535.67;;;21.52;76.12
81905;BME280;71370;-33.792;151.032;2024-02-15T04:54:03;101535.36;;;21.51;76.40
81905;BME280;71370;-33.792;151.032;2024-02-15T04:55:09;101537.50;;;21.52;76.47
81905;BME280;71370;-33.792;151.032;2024-02-15T04:56:16;101539.09;;;21.52;76.45
81905;BME280;71370;-33.792;151.032;2024-02-15T04:57:24;101538.20;;;21.52;76.21
81905;BME280;71370;-33.792;151.032;2024-02-15T04:58:32;101538.77;;;21.51;76.12
81905;BME280;71370;-33.792;151.032;2024-02-15T04:59:42;101542.34;;;21.51;76.19
81905;BME280;71370;-33.792;151.032;2024-02-15T05:00:53;101535.77;;;21.50;76.07
81905;BME280;71370;-33.792;151.032;2024-02-15T05:02:04;101539.61;;;21.49;76.23
81905;BME280;71370;-33.792;151.032;2024-02-15T05:03:11;101536.74;;;21.49;75.96
81905;BME280;71370;-33.792;151.032;2024-02-15T05:04:18;101535.17;;;21.48;75.63
81905;BME280;71370;-33.792;151.032;2024-02-15T05:05:25;101534.33;;;21.47;75.70
81905;BME280;71370;-33.792;151.032;2024-02-15T05:06:34;101530.98;;;21.45;76.09
81905;BME280;71370;-33.792;151.032;2024-02-15T05:07:43;101533.48;;;21.46;76.22
81905;BME280;71370;-33.792;151.032;2024-02-15T05:08:50;101532.23;;;21.46;75.78
81905;BME280;71370;-33.792;151.032;2024-02-15T05:09:57;101536.21;;;21.45;75.44
81905;BME280;71370;-33.792;151.032;2024-02-15T05:11:04;101532.32;;;21.43;75.44
81905;BME280;71370;-33.792;151.032;2024-02-15T05:12:24;101532.14;;;21.43;75.75
81905;BME280;71370;-33.792;151.032;2024-02-15T05:13:32;101535.89;;;21.44;75.93
81905;BME280;71370;-33.792;151.032;2024-02-15T05:14:39;101535.13;;;21.45;75.78
81905;BME280;71370;-33.792;151.032;2024-02-15T05:15:46;101530.64;;;21.45;76.09
81905;BME280;71370;-33.792;151.032;2024-02-15T05:16:53;101534.16;;;21.47;76.13
81905;BME280;71370;-33.792;151.032;2024-02-15T05:17:59;101531.10;;;21.47;76.54
81905;BME280;71370;-33.792;151.032;2024-02-15T05:19:08;101534.52;;;21.46;76.47
81905;BME280;71370;-33.792;151.032;2024-02-15T05:20:17;101535.65;;;21.46;76.19
81905;BME280;71370;-33.792;151.032;2024-02-15T05:21:26;101534.25;;;21.44;75.67
81905;BME280;71370;-33.792;151.032;2024-02-15T05:22:33;101538.26;;;21.42;75.29
81905;BME280;71370;-33.792;151.032;2024-02-15T05:23:42;101538.35;;;21.40;75.25
81905;BME280;71370;-33.792;151.032;2024-02-15T05:24:50;101540.00;;;21.39;75.55
81905;BME280;71370;-33.792;151.032;2024-02-15T05:25:58;101538.22;;;21.39;75.76
81905;BME280;71370;-33.792;151.032;2024-02-15T05:27:05;101537.90;;;21.38;75.57
81905;BME280;71370;-33.792;151.032;2024-02-15T05:28:12;101540.73;;;21.39;75.63
81905;BME280;71370;-33.792;151.032;2024-02-15T05:29:19;101538.73;;;21.39;75.50
81905;BME280;71370;-33.792;151.032;2024-02-15T05:30:27;101539.96;;;21.41;75.30
81905;BME280;71370;-33.792;151.032;2024-02-15T05:31:36;101542.95;;;21.41;75.31
81905;BME280;71370;-33.792;151.032;2024-02-15T05:32:44;101542.06;;;21.41;75.27
81905;BME280;71370;-33.792;151.032;2024-02-15T05:33:52;101540.83;;;21.40;75.07
81905;BME280;71370;-33.792;151.032;2024-02-15T05:35:00;101534.42;;;21.40;74.61
81905;BME280;71370;-33.792;151.032;2024-02-15T05:36:08;101535.70;;;21.39;74.66
81905;BME280;71370;-33.792;151.032;2024-02-15T05:37:16;101537.36;;;21.38;74.76
81905;BME280;71370;-33.792;151.032;2024-02-15T05:38:23;101541.79;;;21.39;74.97
81905;BME280;71370;-33.792;151.032;2024-02-15T05:39:30;101538.01;;;21.40;74.47
81905;BME280;71370;-33.792;151.032;2024-02-15T05:40:37;101533.75;;;21.39;73.95
81905;BME280;71370;-33.792;151.032;2024-02-15T05:41:44;101534.67;;;21.38;74.39